Time;durP1;ratioP1;P1;durP2;ratioP2;P2;SDS_P1;SDS_P2;PMS_P1;PMS_P2;Temp;Humidity;BMP_temperature;BMP_pressure;BME280_temperature;BME280_humidity;BME280_pressure;Samples;Min_cycle;Max_cycle;Signal;HPM_P1;HPM_P2
2023/09/05 00:14:23;;;;;;;7.93;5.13;;;21.00;99.90;;;;;;4549194;19;20004;-76
2023/09/05 00:15:59;;;;;;;8.50;5.13;;;21.00;99.90;;;;;;4592416;19;20440;-75
2023/09/05 00:17:34;;;;;;;9.90;5.25;;;21.00;99.90;;;;;;4592263;19;20031;-75
2023/09/05 00:19:08;;;;;;;10.10;5.47;;;21.00;99.90;;;;;;4592609;19;20434;-75
2023/09/05 00:20:45;;;;;;;9.10;4.97;;;21.00;99.90;;;;;;4590685;19;20007;-75
2023/09/05 00:22:20;;;;;;;7.97;4.28;;;21.00;99.90;;;;;;4592529;19;20013;-75
2023/09/05 00:23:55;;;;;;;7.93;4.82;;;21.00;99.90;;;;;;4592510;19;20418;-75
2023/09/05 00:25:30;;;;;;;7.18;5.03;;;21.00;99.90;;;;;;4589592;19;20033;-75
2023/09/05 00:27:07;;;;;;;8.55;5.50;;;21.00;99.90;;;;;;4591900;19;20002;-75
2023/09/05 00:28:43;;;;;;;11.38;5.05;;;21.00;99.90;;;;;;4592305;19;19999;-74
2023/09/05 00:30:22;;;;;;;9.32;5.65;;;21.00;99.90;;;;;;4592138;19;20014;-74
2023/09/05 00:31:59;;;;;;;10.07;4.95;;;21.00;99.90;;;;;;4590697;19;20038;-74
2023/09/05 00:33:33;;;;;;;10.15;5.45;;;21.00;99.90;;;;;;4590819;19;20118;-75
2023/09/05 00:35:08;;;;;;;9.68;6.38;;;21.00;99.90;;;;;;4591240;19;20003;-74
2023/09/05 00:36:42;;;;;;;10.57;6.50;;;21.00;99.90;;;;;;4592003;19;20006;-74
2023/09/05 00:38:17;;;;;;;9.95;7.07;;;21.00;99.90;;;;;;4591991;19;20309;-74
2023/09/05 00:39:52;;;;;;;12.27;7.22;;;21.00;99.90;;;;;;4590680;19;20007;-74
2023/09/05 00:41:26;;;;;;;11.38;7.55;;;21.00;99.90;;;;;;4590848;19;20071;-74
2023/09/05 00:43:01;;;;;;;11.80;8.20;;;21.00;99.90;;;;;;4591845;19;20003;-74
2023/09/05 00:44:35;;;;;;;13.05;7.88;;;21.00;99.90;;;;;;4591534;19;20080;-74
2023/09/05 00:46:10;;;;;;;13.13;7.35;;;21.00;99.90;;;;;;4591819;19;20010;-74
2023/09/05 00:47:47;;;;;;;10.90;6.72;;;21.00;99.90;;;;;;4591796;19;20006;-74
2023/09/05 00:49:22;;;;;;;11.20;7.10;;;21.00;99.90;;;;;;4591871;19;20006;-75
2023/09/05 00:50:58;;;;;;;9.90;6.68;;;20.90;99.90;;;;;;4591802;19;20011;-74
2023/09/05 00:52:34;;;;;;;12.00;7.13;;;21.00;99.90;;;;;;4590437;19;20348;-75
2023/09/05 00:54:08;;;;;;;10.65;6.75;;;21.00;99.90;;;;;;4591621;19;20283;-74
2023/09/05 00:55:44;;;;;;;9.75;6.90;;;21.00;99.90;;;;;;4591783;19;20027;-74
2023/09/05 00:57:18;;;;;;;9.85;6.47;;;21.00;99.90;;;;;;4590342;19;20010;-75
2023/09/05 00:58:52;;;;;;;11.85;7.05;;;21.00;99.90;;;;;;4591147;19;20036;-75
2023/09/05 01:00:28;;;;;;;9.70;6.22;;;20.90;99.90;;;;;;4591718;19;20010;-74
2023/09/05 01:02:02;;;;;;;9.23;6.07;;;20.90;99.90;;;;;;4591578;19;20041;-74
2023/09/05 01:03:36;;;;;;;8.60;6.10;;;21.00;99.90;;;;;;4591549;19;20003;-75
2023/09/05 01:05:11;;;;;;;8.55;6.03;;;20.90;99.90;;;;;;4591100;19;20003;-74
2023/09/05 01:06:50;;;;;;;8.05;5.63;;;20.90;99.90;;;;;;4591514;19;20003;-75
2023/09/05 01:08:30;;;;;;;9.60;5.65;;;20.90;99.90;;;;;;4590415;19;20425;-74
2023/09/05 01:10:15;;;;;;;9.90;5.20;;;20.90;99.90;;;;;;4591269;19;20302;-74
2023/09/05 01:11:49;;;;;;;8.88;6.20;;;21.00;99.90;;;;;;4590147;19;20036;-75
2023/09/05 01:13:26;;;;;;;9.32;6.00;;;21.00;99.90;;;;;;4591101;19;20003;-74
2023/09/05 01:15:03;;;;;;;9.98;6.75;;;20.90;99.90;;;;;;4590357;19;20022;-74
2023/09/05 01:16:43;;;;;;;10.82;6.45;;;20.90;99.90;;;;;;4591305;19;20448;-74
2023/09/05 01:18:17;;;;;;;9.68;6.22;;;20.90;99.90;;;;;;4591408;19;20006;-74
2023/09/05 01:19:54;;;;;;;7.90;6.13;;;20.90;99.90;;;;;;4590002;19;19999;-75
2023/09/05 01:21:39;;;;;;;8.32;5.55;;;20.90;99.90;;;;;;4590090;19;20014;-74
2023/09/05 01:23:17;;;;;;;9.52;5.80;;;20.90;99.90;;;;;;4590152;19;20010;-75
2023/09/05 01:24:52;;;;;;;9.82;6.25;;;20.90;99.90;;;;;;4589222;19;20034;-74
2023/09/05 01:26:26;;;;;;;8.38;5.38;;;20.90;99.90;;;;;;4590843;19;20310;-75
2023/09/05 01:28:00;;;;;;;9.80;6.22;;;20.90;99.90;;;;;;4591177;19;20015;-75
2023/09/05 01:29:36;;;;;;;8.95;5.57;;;20.90;99.90;;;;;;4591197;19;20010;-75
2023/09/05 01:31:10;;;;;;;8.05;5.63;;;20.90;99.90;;;;;;4591124;19;20003;-74
2023/09/05 01:32:44;;;;;;;8.60;5.70;;;20.90;99.90;;;;;;4592261;19;19998;-75
2023/09/05 01:34:20;;;;;;;7.10;5.20;;;20.90;99.90;;;;;;4595170;19;20014;-75
2023/09/05 01:35:53;;;;;;;7.85;5.57;;;20.90;99.90;;;;;;4595700;19;20009;-75
2023/09/05 01:37:28;;;;;;;7.90;5.75;;;20.90;99.90;;;;;;4594545;19;20002;-74
2023/09/05 01:39:03;;;;;;;11.75;5.72;;;20.90;99.90;;;;;;4595408;19;20010;-75
2023/09/05 01:40:37;;;;;;;9.57;5.95;;;20.90;99.90;;;;;;4595653;19;20007;-75
2023/09/05 01:42:11;;;;;;;9.80;5.80;;;20.90;99.90;;;;;;4595541;19;20006;-75
2023/09/05 01:43:46;;;;;;;9.23;5.65;;;20.90;99.90;;;;;;4595885;19;20298;-75
2023/09/05 01:45:20;;;;;;;9.95;6.07;;;20.90;99.90;;;;;;4594341;19;20009;-75
2023/09/05 01:46:54;;;;;;;8.60;5.95;;;20.90;99.90;;;;;;4595555;19;20003;-75
2023/09/05 01:48:29;;;;;;;7.60;5.57;;;20.90;99.90;;;;;;4595891;19;20039;-74
2023/09/05 01:50:03;;;;;;;9.25;6.10;;;20.90;99.90;;;;;;4593955;19;20014;-74
2023/09/05 01:51:37;;;;;;;10.52;5.72;;;20.90;99.90;;;;;;4594983;19;19998;-75
2023/09/05 01:53:12;;;;;;;7.88;5.43;;;20.90;99.90;;;;;;4595308;19;20433;-75
2023/09/05 01:54:46;;;;;;;7.45;5.43;;;20.80;99.90;;;;;;4594543;19;20009;-75
2023/09/05 01:56:20;;;;;;;9.52;6.18;;;20.90;99.90;;;;;;4595290;19;19999;-74
2023/09/05 01:57:57;;;;;;;7.82;5.65;;;20.90;99.90;;;;;;4593953;19;20367;-75
2023/09/05 01:59:31;;;;;;;8.30;5.90;;;20.90;99.90;;;;;;4595205;19;20062;-75
2023/09/05 02:01:05;;;;;;;8.05;5.50;;;20.90;99.90;;;;;;4594501;19;20123;-74
2023/09/05 02:02:40;;;;;;;8.90;6.10;;;20.90;99.90;;;;;;4595397;19;20006;-74
2023/09/05 02:04:14;;;;;;;6.60;5.03;;;20.90;99.90;;;;;;4595180;19;20339;-75
2023/09/05 02:05:48;;;;;;;7.40;5.72;;;20.90;99.90;;;;;;4595110;19;20140;-74
2023/09/05 02:07:23;;;;;;;7.97;5.90;;;20.90;99.90;;;;;;4595137;19;20022;-74
2023/09/05 02:08:57;;;;;;;9.75;6.10;;;20.80;99.90;;;;;;4595285;19;20025;-75
2023/09/05 02:10:33;;;;;;;8.70;5.93;;;20.90;99.90;;;;;;4595095;19;20073;-75
2023/09/05 02:12:09;;;;;;;9.10;5.72;;;20.90;99.90;;;;;;4594996;19;20006;-74
2023/09/05 02:13:43;;;;;;;9.60;5.90;;;20.90;99.90;;;;;;4595023;19;20010;-75
2023/09/05 02:15:16;;;;;;;9.23;6.53;;;20.80;99.90;;;;;;4593405;19;20018;-75
2023/09/05 02:16:53;;;;;;;9.23;6.90;;;20.90;99.90;;;;;;4594951;19;20007;-75
2023/09/05 02:18:26;;;;;;;9.80;6.32;;;20.80;99.90;;;;;;4594847;19;20010;-75
2023/09/05 02:20:03;;;;;;;10.70;6.55;;;20.80;99.90;;;;;;4593284;19;20006;-75
2023/09/05 02:21:39;;;;;;;9.45;6.32;;;20.80;99.90;;;;;;4593539;19;20007;-74
2023/09/05 02:23:14;;;;;;;8.18;6.45;;;20.80;99.90;;;;;;4595011;19;20003;-74
2023/09/05 02:24:48;;;;;;;9.68;5.93;;;20.80;99.90;;;;;;4593809;19;20009;-75
2023/09/05 02:26:23;;;;;;;9.43;6.25;;;20.80;99.90;;;;;;4594604;19;20007;-75
2023/09/05 02:27:57;;;;;;;9.32;5.53;;;20.80;99.90;;;;;;4594585;19;20003;-75
2023/09/05 02:29:32;;;;;;;8.68;5.97;;;20.80;99.90;;;;;;4593207;19;20418;-74
2023/09/05 02:31:07;;;;;;;9.18;5.78;;;20.80;99.90;;;;;;4594306;19;20010;-74
2023/09/05 02:32:43;;;;;;;9.05;5.80;;;20.80;99.90;;;;;;4593211;19;20033;-74
2023/09/05 02:34:18;;;;;;;10.10;6.93;;;20.90;99.90;;;;;;4594032;19;20024;-75
2023/09/05 02:35:53;;;;;;;11.65;5.97;;;20.90;99.90;;;;;;4594608;19;20034;-75
2023/09/05 02:37:28;;;;;;;11.40;6.45;;;20.90;99.90;;;;;;4594526;19;19998;-74
2023/09/05 02:39:02;;;;;;;10.20;5.93;;;20.90;99.90;;;;;;4594487;19;19999;-75
2023/09/05 02:40:42;;;;;;;11.10;6.43;;;20.90;99.90;;;;;;4594518;19;20026;-75
2023/09/05 02:42:17;;;;;;;10.05;7.22;;;20.90;99.90;;;;;;4593134;19;20298;-75
2023/09/05 02:43:52;;;;;;;10.15;5.95;;;20.90;99.90;;;;;;4592768;19;20307;-75
2023/09/05 02:45:27;;;;;;;10.88;6.25;;;20.90;99.90;;;;;;4593036;19;20002;-75
2023/09/05 02:47:01;;;;;;;10.00;5.90;;;20.90;99.90;;;;;;4594209;19;20023;-76
2023/09/05 02:48:42;;;;;;;9.30;6.05;;;20.90;99.90;;;;;;4594463;19;20011;-75
2023/09/05 02:50:17;;;;;;;9.05;6.28;;;21.00;99.90;;;;;;4592856;19;20336;-75
2023/09/05 02:51:52;;;;;;;9.00;5.65;;;20.90;99.90;;;;;;4593910;19;20006;-75
2023/09/05 02:53:27;;;;;;;9.25;5.95;;;20.90;99.90;;;;;;4594338;19;20025;-75
2023/09/05 02:55:03;;;;;;;8.20;5.78;;;20.90;99.90;;;;;;4593496;19;20003;-76
2023/09/05 02:56:38;;;;;;;8.63;5.30;;;20.90;99.90;;;;;;4594108;19;20029;-75
2023/09/05 02:58:12;;;;;;;9.18;5.70;;;21.00;99.90;;;;;;4592969;19;20377;-75
2023/09/05 02:59:46;;;;;;;9.80;6.00;;;20.90;99.90;;;;;;4593594;19;20012;-75
2023/09/05 03:01:22;;;;;;;8.00;6.00;;;20.90;99.90;;;;;;4593235;19;20002;-75
2023/09/05 03:02:56;;;;;;;9.20;6.72;;;20.90;99.90;;;;;;4594175;19;20287;-75
2023/09/05 03:04:32;;;;;;;12.95;6.63;;;20.90;99.90;;;;;;4593392;19;20028;-75
2023/09/05 03:06:14;;;;;;;10.88;7.05;;;20.90;99.90;;;;;;4593902;19;20024;-75
2023/09/05 03:07:50;;;;;;;10.82;6.55;;;20.90;99.90;;;;;;4593431;19;20058;-75
2023/09/05 03:09:24;;;;;;;8.25;6.00;;;20.90;99.90;;;;;;4593735;19;20062;-76
2023/09/05 03:10:59;;;;;;;8.98;6.43;;;20.90;99.90;;;;;;4594027;19;20318;-75
2023/09/05 03:12:33;;;;;;;8.30;6.15;;;20.90;99.90;;;;;;4593730;19;20007;-75
2023/09/05 03:14:08;;;;;;;13.68;7.05;;;20.90;99.90;;;;;;4593694;19;20002;-75
2023/09/05 03:15:43;;;;;;;11.50;7.40;;;20.90;99.90;;;;;;4592441;19;20441;-75
2023/09/05 03:17:18;;;;;;;11.15;7.15;;;20.90;99.90;;;;;;4593584;19;20009;-75
2023/09/05 03:18:51;;;;;;;9.50;7.22;;;20.90;99.90;;;;;;4593197;19;20298;-75
2023/09/05 03:20:28;;;;;;;9.32;6.90;;;20.90;99.90;;;;;;4593663;19;20007;-75
2023/09/05 03:22:03;;;;;;;12.02;7.75;;;20.90;99.90;;;;;;4592173;19;20422;-74
2023/09/05 03:23:38;;;;;;;11.20;7.93;;;20.90;99.90;;;;;;4592089;19;20003;-74
2023/09/05 03:25:13;;;;;;;9.38;6.50;;;20.90;99.90;;;;;;4590501;19;20014;-74
2023/09/05 03:26:47;;;;;;;9.52;6.70;;;20.90;99.90;;;;;;4593095;19;20009;-73
2023/09/05 03:28:21;;;;;;;11.48;6.75;;;20.90;99.90;;;;;;4591814;19;20025;-73
2023/09/05 03:29:57;;;;;;;11.05;6.65;;;20.90;99.90;;;;;;4591765;19;20092;-74
2023/09/05 03:31:31;;;;;;;9.48;7.28;;;20.90;99.90;;;;;;4592571;19;20002;-73
2023/09/05 03:33:05;;;;;;;11.15;7.50;;;20.90;99.90;;;;;;4591762;19;20417;-73
2023/09/05 03:34:48;;;;;;;9.70;6.68;;;20.90;99.90;;;;;;4592236;19;20009;-74
2023/09/05 03:36:25;;;;;;;9.27;6.55;;;20.90;99.90;;;;;;4593345;19;20006;-75
2023/09/05 03:38:05;;;;;;;9.68;6.80;;;20.90;99.90;;;;;;4591512;19;20027;-74
2023/09/05 03:39:40;;;;;;;11.32;7.10;;;20.90;99.90;;;;;;4592548;19;20090;-74
2023/09/05 03:41:14;;;;;;;13.88;7.72;;;20.90;99.90;;;;;;4592169;19;20402;-74
2023/09/05 03:42:48;;;;;;;10.40;7.72;;;20.90;99.90;;;;;;4592806;19;20018;-75
2023/09/05 03:44:26;;;;;;;9.85;6.57;;;20.90;99.90;;;;;;4591412;19;20010;-76
2023/09/05 03:46:01;;;;;;;11.18;7.65;;;20.90;99.90;;;;;;4592476;19;19998;-77
2023/09/05 03:47:35;;;;;;;9.77;7.07;;;20.90;99.90;;;;;;4591503;19;20077;-74
2023/09/05 03:49:15;;;;;;;12.82;7.90;;;20.90;99.90;;;;;;4591355;19;20011;-74
2023/09/05 03:50:49;;;;;;;8.85;6.75;;;21.00;99.90;;;;;;4593025;19;20403;-74
2023/09/05 03:52:23;;;;;;;11.15;6.85;;;21.10;99.90;;;;;;4592610;19;20003;-74
2023/09/05 03:53:59;;;;;;;7.70;6.65;;;21.10;99.90;;;;;;4592554;19;20011;-74
2023/09/05 03:55:34;;;;;;;7.85;6.40;;;21.20;99.90;;;;;;4587661;19;20054;-78
2023/09/05 03:57:09;;;;;;;9.93;6.93;;;21.20;99.90;;;;;;4592133;19;19994;-74
2023/09/05 03:58:44;;;;;;;11.73;6.82;;;21.30;99.90;;;;;;4591174;19;20010;-74
2023/09/05 04:00:18;;;;;;;10.15;6.82;;;21.40;99.90;;;;;;4592050;19;20002;-74
2023/09/05 04:01:52;;;;;;;9.18;6.35;;;21.40;99.90;;;;;;4591447;19;20425;-74
2023/09/05 04:03:28;;;;;;;8.98;6.55;;;21.40;99.90;;;;;;4592493;19;20166;-74
2023/09/05 04:05:02;;;;;;;9.00;6.03;;;21.40;99.90;;;;;;4592046;19;19999;-74
2023/09/05 04:06:38;;;;;;;10.00;6.07;;;21.50;99.90;;;;;;4592269;19;20003;-74
2023/09/05 04:08:14;;;;;;;11.30;6.88;;;21.50;99.90;;;;;;4591007;19;20009;-74
2023/09/05 04:09:48;;;;;;;10.70;6.90;;;21.50;99.90;;;;;;4592159;19;20026;-76
2023/09/05 04:11:24;;;;;;;9.60;6.30;;;21.50;99.90;;;;;;4592288;19;20009;-78
2023/09/05 04:13:00;;;;;;;10.55;6.53;;;21.50;99.90;;;;;;4592476;19;20033;-75
2023/09/05 04:14:35;;;;;;;8.80;6.47;;;21.40;99.90;;;;;;4591502;19;20318;-74
2023/09/05 04:16:09;;;;;;;8.57;5.88;;;21.40;99.90;;;;;;4592287;19;20003;-74
2023/09/05 04:17:44;;;;;;;8.25;5.93;;;21.40;99.90;;;;;;4592198;19;20022;-74
2023/09/05 04:19:19;;;;;;;9.10;5.90;;;21.50;99.90;;;;;;4592266;19;20103;-74
2023/09/05 04:21:02;;;;;;;13.00;6.00;;;21.50;99.90;;;;;;4591836;19;20002;-75
2023/09/05 04:22:38;;;;;;;9.95;6.45;;;21.40;99.90;;;;;;4590693;19;20014;-75
2023/09/05 04:24:12;;;;;;;8.65;6.50;;;21.50;99.90;;;;;;4591624;19;20325;-75
2023/09/05 04:25:56;;;;;;;14.60;6.80;;;21.40;99.90;;;;;;4590892;19;20477;-76
2023/09/05 04:27:31;;;;;;;8.93;7.05;;;21.40;99.90;;;;;;4590999;19;20006;-75
2023/09/05 04:29:06;;;;;;;12.32;6.78;;;21.30;99.90;;;;;;4590917;19;20006;-76
2023/09/05 04:30:41;;;;;;;9.55;6.72;;;21.30;99.90;;;;;;4590839;19;20024;-75
2023/09/05 04:32:18;;;;;;;8.35;6.63;;;21.40;99.90;;;;;;4591746;19;20398;-75
2023/09/05 04:33:51;;;;;;;10.88;7.43;;;21.30;99.90;;;;;;4592491;19;20047;-75
2023/09/05 04:35:25;;;;;;;12.50;8.05;;;21.40;99.90;;;;;;4591216;19;20006;-76
2023/09/05 04:37:02;;;;;;;12.82;8.07;;;21.50;99.90;;;;;;4590851;19;19998;-76
2023/09/05 04:38:38;;;;;;;11.98;7.53;;;21.50;99.90;;;;;;4591791;19;20493;-76
2023/09/05 04:40:12;;;;;;;12.75;7.95;;;21.60;99.90;;;;;;4590659;19;20050;-76
2023/09/05 04:41:48;;;;;;;10.68;8.00;;;21.60;99.90;;;;;;4589842;19;20035;-75
2023/09/05 04:43:21;;;;;;;11.15;7.60;;;21.70;99.90;;;;;;4591658;19;20007;-75
2023/09/05 04:44:55;;;;;;;10.00;7.55;;;21.70;99.90;;;;;;4590012;19;20015;-75
2023/09/05 04:46:38;;;;;;;11.70;8.05;;;21.70;99.90;;;;;;4591512;19;20015;-75
2023/09/05 04:48:14;;;;;;;11.00;8.02;;;21.80;99.90;;;;;;4590521;19;20014;-76
2023/09/05 04:49:50;;;;;;;13.02;7.90;;;21.80;99.90;;;;;;4591625;19;20009;-75
2023/09/05 04:51:25;;;;;;;12.18;8.27;;;21.90;99.90;;;;;;4592032;19;20007;-76
2023/09/05 04:53:00;;;;;;;13.98;8.32;;;21.90;99.90;;;;;;4590692;19;20004;-75
2023/09/05 04:54:34;;;;;;;11.60;7.85;;;21.90;99.90;;;;;;4591313;19;20437;-76
2023/09/05 04:56:10;;;;;;;13.10;7.63;;;21.90;99.90;;;;;;4591862;19;20023;-76
2023/09/05 04:57:47;;;;;;;11.20;6.90;;;21.90;99.90;;;;;;4592055;19;20005;-76
2023/09/05 04:59:22;;;;;;;11.38;7.72;;;21.90;99.90;;;;;;4591921;19;20007;-76
2023/09/05 05:01:02;;;;;;;13.55;7.53;;;21.90;99.90;;;;;;4591798;19;20013;-75
2023/09/05 05:02:36;;;;;;;13.27;7.70;;;21.80;99.90;;;;;;4592085;19;20054;-77
2023/09/05 05:04:11;;;;;;;13.02;7.65;;;21.90;99.90;;;;;;4591784;19;20657;-76
2023/09/05 05:06:03;;;;;;;12.60;7.28;;;21.80;99.90;;;;;;4591974;19;20448;-77
2023/09/05 05:07:42;;;;;;;8.95;7.30;;;21.80;99.90;;;;;;4597851;19;20089;-76
2023/09/05 05:09:30;;;;;;;10.48;7.80;;;21.70;99.90;;;;;;4599481;19;20014;-77
2023/09/05 05:11:06;;;;;;;15.27;7.93;;;21.70;99.90;;;;;;4598924;19;20458;-75
2023/09/05 05:12:41;;;;;;;11.82;8.32;;;21.70;99.90;;;;;;4599485;19;20015;-74
2023/09/05 05:14:16;;;;;;;11.98;8.18;;;21.60;99.90;;;;;;4598175;19;20036;-74
2023/09/05 05:15:52;;;;;;;10.73;7.25;;;21.60;99.90;;;;;;4596143;19;20482;-75
2023/09/05 05:17:27;;;;;;;12.57;7.85;;;21.60;99.90;;;;;;4597895;19;20011;-75
2023/09/05 05:19:03;;;;;;;10.95;7.78;;;21.60;99.90;;;;;;4597439;19;20014;-74
2023/09/05 05:20:45;;;;;;;15.45;8.15;;;21.60;99.90;;;;;;4598772;19;20018;-74
2023/09/05 05:22:35;;;;;;;14.93;7.75;;;21.50;99.90;;;;;;4596934;19;20054;-74
2023/09/05 05:24:27;;;;;;;14.52;8.32;;;21.50;99.90;;;;;;4596194;19;20025;-75
2023/09/05 05:26:28;;;;;;;12.20;7.88;;;21.50;99.90;;;;;;4592573;19;20003;-75
2023/09/05 05:28:25;;;;;;;14.50;8.60;;;21.40;99.90;;;;;;4597004;19;20026;-75
2023/09/05 05:30:21;;;;;;;13.02;8.48;;;21.40;99.90;;;;;;4595959;19;20035;-75
2023/09/05 05:32:17;;;;;;;10.43;7.38;;;21.40;99.90;;;;;;4595079;19;20010;-75
2023/09/05 05:34:18;;;;;;;12.95;7.50;;;21.40;99.90;;;;;;4592635;19;20434;-75
2023/09/05 05:36:19;;;;;;;12.05;7.82;;;21.40;99.90;;;;;;4596663;19;20014;-75
2023/09/05 05:38:14;;;;;;;11.48;7.63;;;21.40;99.90;;;;;;4595313;19;20433;-75
2023/09/05 05:40:06;;;;;;;12.32;7.10;;;21.40;99.90;;;;;;4595128;19;20051;-75
2023/09/05 05:42:09;;;;;;;13.38;8.13;;;21.40;99.90;;;;;;4594208;19;20110;-75
2023/09/05 05:44:13;;;;;;;15.18;9.23;;;21.40;99.90;;;;;;4596085;19;20048;-76
2023/09/05 05:46:06;;;;;;;10.43;8.00;;;21.30;99.90;;;;;;4595532;19;20052;-76
2023/09/05 05:48:08;;;;;;;19.13;9.77;;;21.30;99.90;;;;;;4592845;19;20032;-75
2023/09/05 05:50:09;;;;;;;13.45;8.32;;;21.20;99.90;;;;;;4596207;19;20027;-75
2023/09/05 05:51:50;;;;;;;10.52;7.45;;;21.20;99.90;;;;;;4596197;19;20033;-77
2023/09/05 05:53:24;;;;;;;10.43;7.43;;;21.20;99.90;;;;;;4594837;19;20019;-75
2023/09/05 05:55:00;;;;;;;11.00;7.82;;;21.20;99.90;;;;;;4594432;19;20090;-74
2023/09/05 05:56:34;;;;;;;12.73;7.82;;;21.20;99.90;;;;;;4594949;19;20018;-75
2023/09/05 05:58:09;;;;;;;11.13;7.82;;;21.20;99.90;;;;;;4596712;19;20007;-75
2023/09/05 05:59:46;;;;;;;12.68;7.93;;;21.20;99.90;;;;;;4596156;19;20024;-75
2023/09/05 06:01:23;;;;;;;15.20;8.88;;;21.20;99.90;;;;;;4594021;19;20011;-75
2023/09/05 06:02:57;;;;;;;11.55;8.20;;;21.20;99.90;;;;;;4595419;19;20403;-75
2023/09/05 06:04:32;;;;;;;13.57;9.07;;;21.20;99.90;;;;;;4595415;19;20026;-76
2023/09/05 06:06:06;;;;;;;14.38;9.23;;;21.20;99.90;;;;;;4596267;19;20512;-75
2023/09/05 06:07:44;;;;;;;13.05;8.93;;;21.10;99.90;;;;;;4595496;19;20010;-76
2023/09/05 06:09:21;;;;;;;11.95;9.05;;;21.20;99.90;;;;;;4595390;19;20022;-75
2023/09/05 06:10:56;;;;;;;15.85;9.57;;;21.20;99.90;;;;;;4593277;19;20002;-74
2023/09/05 06:12:31;;;;;;;15.68;10.80;;;21.10;99.90;;;;;;4593180;19;20446;-75
2023/09/05 06:14:06;;;;;;;14.75;10.60;;;21.10;99.90;;;;;;4593233;19;20010;-75
2023/09/05 06:15:40;;;;;;;13.55;11.05;;;21.20;99.90;;;;;;4591138;19;20018;-76
2023/09/05 06:17:15;;;;;;;15.93;10.35;;;21.20;99.90;;;;;;4592973;19;20026;-75
2023/09/05 06:18:51;;;;;;;12.13;8.77;;;21.20;99.90;;;;;;4591627;19;20426;-75
2023/09/05 06:20:25;;;;;;;14.00;8.85;;;21.30;99.90;;;;;;4592996;19;20328;-75
2023/09/05 06:22:00;;;;;;;13.88;9.85;;;21.40;99.90;;;;;;4591622;19;20007;-75
2023/09/05 06:23:35;;;;;;;12.35;9.02;;;21.50;99.90;;;;;;4593236;19;20006;-76
2023/09/05 06:25:09;;;;;;;13.18;9.05;;;21.60;99.90;;;;;;4591719;19;20003;-76
2023/09/05 06:26:45;;;;;;;12.45;8.82;;;21.60;99.90;;;;;;4592824;19;20002;-76
2023/09/05 06:28:20;;;;;;;13.52;9.23;;;21.70;99.90;;;;;;4592899;19;20002;-75
2023/09/05 06:29:55;;;;;;;13.15;9.25;;;21.70;99.90;;;;;;4592691;19;19999;-76
2023/09/05 06:31:30;;;;;;;16.58;10.20;;;21.80;99.90;;;;;;4592766;19;20009;-75
2023/09/05 06:33:05;;;;;;;13.20;9.13;;;21.80;99.90;;;;;;4593015;19;20070;-75
2023/09/05 06:34:40;;;;;;;14.50;9.80;;;21.90;99.90;;;;;;4592028;19;20007;-75
2023/09/05 06:36:14;;;;;;;12.15;9.10;;;21.80;99.90;;;;;;4592646;19;20022;-76
2023/09/05 06:37:58;;;;;;;13.45;9.55;;;21.90;99.90;;;;;;4592669;19;20011;-75
2023/09/05 06:39:34;;;;;;;14.57;9.55;;;21.90;99.90;;;;;;4592629;19;20015;-75
2023/09/05 06:41:10;;;;;;;12.40;9.32;;;21.90;99.90;;;;;;4592162;19;20002;-75
2023/09/05 06:42:45;;;;;;;16.27;10.27;;;21.90;99.90;;;;;;4592501;19;20309;-75
2023/09/05 06:44:19;;;;;;;13.88;10.10;;;21.90;99.90;;;;;;4592197;19;20014;-75
2023/09/05 06:46:05;;;;;;;16.08;10.27;;;21.90;99.90;;;;;;4592481;19;20014;-76
2023/09/05 06:47:41;;;;;;;12.35;9.88;;;21.90;99.90;;;;;;4592678;19;20006;-75
2023/09/05 06:49:18;;;;;;;15.05;10.77;;;21.90;99.90;;;;;;4592635;19;20006;-76
2023/09/05 06:50:53;;;;;;;13.45;10.13;;;21.90;99.90;;;;;;4592392;19;20030;-75
2023/09/05 06:52:29;;;;;;;13.48;10.75;;;21.90;99.90;;;;;;4592407;19;20007;-76
2023/09/05 06:54:03;;;;;;;14.05;10.48;;;21.90;99.90;;;;;;4592716;19;20010;-79
2023/09/05 06:55:37;;;;;;;15.68;10.95;;;21.90;99.90;;;;;;4591619;19;20364;-82
2023/09/05 06:57:13;;;;;;;18.58;10.88;;;21.90;99.90;;;;;;4593429;19;20090;-85
2023/09/05 06:59:00;;;;;;;17.58;10.57;;;21.90;99.90;;;;;;4592867;19;20014;-74
2023/09/05 07:00:39;;;;;;;14.32;10.55;;;21.90;99.90;;;;;;4594305;19;20018;-77
2023/09/05 07:02:15;;;;;;;14.93;10.95;;;21.90;99.90;;;;;;4593246;19;20015;-75
2023/09/05 07:03:56;;;;;;;13.13;9.55;;;21.90;99.90;;;;;;4592418;19;20074;-75
2023/09/05 07:05:41;;;;;;;11.55;9.07;;;21.90;99.90;;;;;;4593967;19;20018;-78
2023/09/05 07:07:18;;;;;;;12.32;9.65;;;21.90;99.90;;;;;;4592949;19;20074;-75
2023/09/05 07:08:53;;;;;;;11.63;9.05;;;21.90;99.90;;;;;;4593047;19;20357;-75
2023/09/05 07:10:27;;;;;;;12.63;8.93;;;21.90;99.90;;;;;;4594293;19;20017;-82
2023/09/05 07:12:06;;;;;;;12.18;9.18;;;21.90;99.90;;;;;;4594261;19;20129;-84
2023/09/05 07:13:48;;;;;;;12.48;8.13;;;21.90;99.90;;;;;;4596332;19;20039;-75
2023/09/05 07:15:23;;;;;;;13.82;8.02;;;21.90;99.90;;;;;;4594199;19;20022;-75
2023/09/05 07:16:58;;;;;;;10.77;8.13;;;21.90;99.90;;;;;;4594304;19;20006;-75
2023/09/05 07:18:33;;;;;;;10.98;8.43;;;21.90;99.90;;;;;;4593915;19;20364;-75
2023/09/05 07:20:09;;;;;;;10.82;8.00;;;21.90;99.90;;;;;;4594160;19;19999;-75
2023/09/05 07:21:45;;;;;;;10.07;6.55;;;21.90;99.90;;;;;;4593106;19;20019;-75
2023/09/05 07:23:20;;;;;;;9.02;7.13;;;21.90;99.90;;;;;;4592801;19;20002;-76
2023/09/05 07:24:53;;;;;;;8.95;6.40;;;21.90;99.90;;;;;;4592799;19;20006;-75
2023/09/05 07:26:31;;;;;;;12.32;7.05;;;21.90;99.90;;;;;;4592538;19;20006;-75
2023/09/05 07:28:06;;;;;;;11.13;7.03;;;21.90;99.90;;;;;;4593365;19;20015;-75
2023/09/05 07:29:40;;;;;;;9.35;6.55;;;21.90;99.90;;;;;;4592429;19;20363;-75
2023/09/05 07:31:16;;;;;;;8.38;6.30;;;21.90;99.90;;;;;;4593369;19;20003;-75
2023/09/05 07:32:51;;;;;;;9.65;5.78;;;22.00;99.90;;;;;;4592435;19;20099;-75
2023/09/05 07:34:26;;;;;;;8.13;6.15;;;22.00;99.90;;;;;;4592939;19;20002;-75
2023/09/05 07:36:02;;;;;;;9.82;6.90;;;21.90;99.90;;;;;;4592342;19;20097;-75
2023/09/05 07:37:38;;;;;;;8.02;6.13;;;21.90;99.90;;;;;;4593022;19;20011;-75
2023/09/05 07:39:13;;;;;;;9.05;6.55;;;22.00;99.90;;;;;;4593620;19;20026;-75
2023/09/05 07:40:48;;;;;;;9.32;6.10;;;22.00;99.90;;;;;;4593626;19;20007;-75
2023/09/05 07:42:22;;;;;;;11.70;6.00;;;22.00;99.90;;;;;;4590816;19;20012;-75
2023/09/05 07:43:57;;;;;;;7.82;5.25;;;22.00;99.90;;;;;;4593072;19;20303;-75
2023/09/05 07:45:33;;;;;;;8.20;5.75;;;22.00;99.90;;;;;;4591057;19;20399;-77
2023/09/05 07:47:07;;;;;;;7.53;5.20;;;22.00;99.90;;;;;;4593042;19;20023;-75
2023/09/05 07:48:42;;;;;;;11.27;5.30;;;22.00;99.90;;;;;;4593355;19;20454;-76
2023/09/05 07:50:17;;;;;;;6.85;4.60;;;22.10;99.90;;;;;;4590924;19;20006;-75
2023/09/05 07:51:57;;;;;;;7.47;5.28;;;22.10;99.90;;;;;;4592959;19;20017;-75
2023/09/05 07:53:32;;;;;;;8.00;5.78;;;22.10;99.90;;;;;;4593577;19;20019;-75
2023/09/05 07:55:08;;;;;;;8.02;5.50;;;22.20;99.90;;;;;;4592707;19;20024;-76
2023/09/05 07:56:41;;;;;;;6.57;4.90;;;22.20;99.90;;;;;;4593390;19;20431;-75
2023/09/05 07:58:16;;;;;;;7.55;4.93;;;22.10;99.90;;;;;;4593152;19;20291;-74
2023/09/05 07:59:51;;;;;;;8.15;5.05;;;22.10;99.90;;;;;;4593368;19;20007;-74
2023/09/05 08:01:26;;;;;;;10.13;5.25;;;22.10;99.90;;;;;;4592511;19;20013;-74
2023/09/05 08:03:03;;;;;;;8.10;5.35;;;22.10;99.90;;;;;;4591657;19;20041;-75
2023/09/05 08:04:40;;;;;;;8.18;5.32;;;22.10;99.90;;;;;;4591228;19;20021;-74
2023/09/05 08:06:15;;;;;;;6.97;4.93;;;22.10;99.90;;;;;;4592627;19;20005;-74
2023/09/05 08:07:50;;;;;;;10.40;5.97;;;22.10;99.90;;;;;;4591903;19;19999;-74
2023/09/05 08:09:29;;;;;;;7.30;5.05;;;22.10;99.90;;;;;;4592397;19;19995;-74
2023/09/05 08:11:10;;;;;;;9.10;5.10;;;22.10;99.90;;;;;;4592956;19;20074;-74
2023/09/05 08:12:45;;;;;;;8.50;5.88;;;22.10;99.90;;;;;;4593441;19;20454;-75
2023/09/05 08:14:21;;;;;;;8.68;6.32;;;22.10;99.90;;;;;;4593804;19;20037;-74
2023/09/05 08:15:58;;;;;;;8.88;6.40;;;22.10;99.90;;;;;;4593162;19;20430;-76
2023/09/05 08:17:32;;;;;;;8.77;5.85;;;22.10;99.90;;;;;;4593338;19;20354;-75
2023/09/05 08:19:11;;;;;;;9.60;5.60;;;22.10;99.90;;;;;;4595235;19;20018;-71
2023/09/05 08:20:46;;;;;;;7.97;5.40;;;22.10;99.90;;;;;;4592271;19;20018;-75
2023/09/05 08:22:23;;;;;;;8.15;5.15;;;22.10;99.90;;;;;;4593114;19;20014;-75
2023/09/05 08:23:58;;;;;;;8.48;5.75;;;22.10;99.90;;;;;;4594119;19;20021;-75
2023/09/05 08:25:32;;;;;;;8.60;5.20;;;22.10;99.90;;;;;;4590426;19;20026;-75
2023/09/05 08:27:08;;;;;;;7.60;4.63;;;22.10;99.90;;;;;;4593138;19;20336;-74
2023/09/05 08:28:47;;;;;;;7.78;4.57;;;22.10;99.90;;;;;;4593071;19;20037;-75
2023/09/05 08:30:24;;;;;;;5.53;4.45;;;22.10;99.90;;;;;;4593225;19;20437;-75
2023/09/05 08:32:04;;;;;;;6.07;4.43;;;22.10;99.90;;;;;;4592625;19;20386;-75
2023/09/05 08:34:44;;;;;;;6.70;4.80;;;22.10;99.90;;;;;;4592191;19;20047;-76